createdAt,value
2023-02-19T00:00:52.155Z,6.8
2023-02-19T00:01:56.223Z,6.9
2023-02-19T00:02:59.936Z,6.8
2023-02-19T00:04:03.031Z,6.8
2023-02-19T00:05:06.445Z,6.8
2023-02-19T00:06:09.362Z,6.8
2023-02-19T00:07:13.020Z,6.8
2023-02-19T00:08:17.402Z,6.8
2023-02-19T00:09:20.707Z,6.8
2023-02-19T00:10:25.581Z,6.8
2023-02-19T00:11:30.404Z,6.8
2023-02-19T00:12:33.748Z,6.8
2023-02-19T00:13:37.709Z,6.8
2023-02-19T00:14:55.090Z,6.8
2023-02-19T00:15:57.302Z,6.8
2023-02-19T00:17:00.876Z,6.9
2023-02-19T00:18:03.973Z,6.8
2023-02-19T00:19:06.862Z,6.9
2023-02-19T00:20:10.859Z,6.9
2023-02-19T00:21:14.701Z,6.9
2023-02-19T00:22:18.323Z,6.9
2023-02-19T00:23:22.284Z,6.9
2023-02-19T00:24:25.985Z,6.9
2023-02-19T00:25:29.475Z,6.9
2023-02-19T00:26:32.231Z,6.9
2023-02-19T00:27:34.951Z,6.9
2023-02-19T00:28:37.825Z,6.9
2023-02-19T00:29:41.836Z,6.9
2023-02-19T00:30:45.092Z,6.9
2023-02-19T00:31:49.222Z,6.9
2023-02-19T00:32:52.787Z,6.9
2023-02-19T00:33:56.118Z,6.9
2023-02-19T00:35:00.450Z,6.9
2023-02-19T00:36:04.212Z,6.9
2023-02-19T00:37:08.089Z,6.9
2023-02-19T00:38:11.048Z,6.9
2023-02-19T00:39:14.534Z,6.9
2023-02-19T00:40:16.756Z,6.9
2023-02-19T00:41:19.934Z,6.9
2023-02-19T00:42:24.314Z,7
2023-02-19T00:43:26.811Z,6.9
2023-02-19T00:44:29.857Z,6.9
2023-02-19T00:45:33.934Z,7
2023-02-19T00:46:37.666Z,6.9
2023-02-19T00:47:42.456Z,6.9
2023-02-19T00:48:45.528Z,6.9
2023-02-19T00:49:48.492Z,6.9
2023-02-19T00:50:51.210Z,7
2023-02-19T00:51:53.916Z,6.9
2023-02-19T00:52:57.047Z,6.9
2023-02-19T00:54:00.775Z,6.9
2023-02-19T00:55:04.730Z,7
2023-02-19T00:56:07.953Z,6.9
2023-02-19T00:57:11.649Z,6.9
2023-02-19T00:58:14.756Z,6.9
2023-02-19T00:59:17.470Z,6.9
2023-02-19T01:00:21.389Z,6.9
2023-02-19T01:01:23.787Z,6.9
2023-02-19T01:02:27.657Z,6.9
2023-02-19T01:03:31.153Z,6.9
2023-02-19T01:04:33.819Z,6.9
2023-02-19T01:05:37.390Z,6.9
2023-02-19T01:06:40.214Z,6.9
2023-02-19T01:07:43.500Z,6.9
2023-02-19T01:08:46.724Z,6.9
2023-02-19T01:09:50.395Z,6.9
2023-02-19T01:10:53.799Z,6.9
2023-02-19T01:11:56.521Z,6.9
2023-02-19T01:12:59.508Z,6.9
2023-02-19T01:14:02.554Z,6.9
2023-02-19T01:15:05.607Z,6.9
2023-02-19T01:16:08.974Z,6.9
2023-02-19T01:17:12.571Z,6.9
2023-02-19T01:18:16.011Z,6.9
2023-02-19T01:19:18.725Z,6.9
2023-02-19T01:20:21.273Z,6.9
2023-02-19T01:21:23.966Z,6.9
2023-02-19T01:22:27.388Z,6.9
2023-02-19T01:23:30.821Z,6.9
2023-02-19T01:24:34.286Z,6.9
2023-02-19T01:25:37.963Z,6.9
2023-02-19T01:26:41.774Z,6.9
2023-02-19T01:27:44.902Z,6.9
2023-02-19T01:28:47.912Z,6.9
2023-02-19T01:29:51.707Z,6.9
2023-02-19T01:30:55.355Z,6.9
2023-02-19T01:31:58.947Z,6.9
2023-02-19T01:33:02.446Z,7
2023-02-19T01:34:05.509Z,6.9
2023-02-19T01:35:09.197Z,6.9
2023-02-19T01:36:11.409Z,6.9
2023-02-19T01:37:14.472Z,6.9
2023-02-19T01:38:17.246Z,6.9
2023-02-19T01:39:20.609Z,6.9
2023-02-19T01:40:24.360Z,6.9
2023-02-19T01:41:27.464Z,6.9
2023-02-19T01:42:31.267Z,6.9
2023-02-19T01:43:34.843Z,6.9
2023-02-19T01:44:37.714Z,6.9
2023-02-19T01:45:39.882Z,6.9
2023-02-19T01:46:43.269Z,6.9
2023-02-19T01:47:46.239Z,6.9
2023-02-19T01:48:48.961Z,6.9
2023-02-19T01:49:52.025Z,6.9
2023-02-19T01:50:54.724Z,7
2023-02-19T01:51:57.991Z,6.9
2023-02-19T01:53:01.349Z,7
2023-02-19T01:54:04.501Z,7
2023-02-19T01:55:07.577Z,7
2023-02-19T01:56:10.729Z,7
2023-02-19T01:57:14.153Z,7
2023-02-19T01:58:18.311Z,7
2023-02-19T01:59:21.647Z,7
2023-02-19T02:00:24.982Z,7
2023-02-19T02:01:28.355Z,7
2023-02-19T02:02:31.349Z,7
2023-02-19T02:03:34.443Z,7
2023-02-19T02:04:37.793Z,7
2023-02-19T02:05:41.166Z,7
2023-02-19T02:06:44.589Z,7
2023-02-19T02:07:47.879Z,7
2023-02-19T02:08:50.643Z,7
2023-02-19T02:09:52.807Z,7
2023-02-19T02:10:54.960Z,7
2023-02-19T02:11:58.349Z,6.9
2023-02-19T02:13:02.086Z,6.9
2023-02-19T02:14:05.694Z,6.9
2023-02-19T02:15:08.948Z,6.9
2023-02-19T02:16:11.850Z,6.9
2023-02-19T02:17:14.741Z,6.9
2023-02-19T02:18:17.535Z,6.9
2023-02-19T02:19:20.335Z,6.9
2023-02-19T02:20:23.959Z,6.9
2023-02-19T02:21:27.126Z,6.9
2023-02-19T02:22:30.885Z,6.9
2023-02-19T02:23:33.324Z,6.9
2023-02-19T02:24:36.698Z,6.9
2023-02-19T02:25:39.748Z,6.9
2023-02-19T02:26:42.455Z,6.9
2023-02-19T02:27:45.487Z,6.9
2023-02-19T02:28:48.110Z,6.8
2023-02-19T02:29:51.686Z,6.8
2023-02-19T02:30:55.279Z,6.8
2023-02-19T02:31:59.334Z,6.8
2023-02-19T02:33:03.197Z,6.8
2023-02-19T02:34:06.048Z,6.8
2023-02-19T02:35:08.769Z,6.8
2023-02-19T02:36:11.501Z,6.8
2023-02-19T02:37:14.689Z,6.8
2023-02-19T02:38:17.203Z,6.8
2023-02-19T02:39:20.364Z,6.8
2023-02-19T02:40:23.391Z,6.8
2023-02-19T02:41:26.549Z,6.8
2023-02-19T02:42:29.973Z,6.8
2023-02-19T02:43:32.722Z,6.8
2023-02-19T02:44:36.299Z,6.7
2023-02-19T02:45:39.590Z,6.8
2023-02-19T02:46:42.508Z,6.7
2023-02-19T02:47:46.207Z,6.7
2023-02-19T02:48:48.908Z,6.7
2023-02-19T02:49:51.052Z,6.7
2023-02-19T02:50:53.473Z,6.7
2023-02-19T02:51:55.981Z,6.7
2023-02-19T02:52:59.329Z,6.7
2023-02-19T02:54:02.716Z,6.7
2023-02-19T02:55:06.052Z,6.7
2023-02-19T02:56:09.418Z,6.7
2023-02-19T02:57:12.779Z,6.7
2023-02-19T02:58:15.957Z,6.7
2023-02-19T02:59:18.822Z,6.6
2023-02-19T03:00:21.958Z,6.6
2023-02-19T03:01:25.525Z,6.7
2023-02-19T03:02:29.756Z,6.6
2023-02-19T03:03:32.763Z,6.6
2023-02-19T03:04:35.821Z,6.6
2023-02-19T03:05:39.110Z,6.6
2023-02-19T03:06:41.652Z,6.6
2023-02-19T03:07:44.995Z,6.6
2023-02-19T03:08:47.999Z,6.6
2023-02-19T03:09:50.992Z,6.6
2023-02-19T03:10:54.322Z,6.6
2023-02-19T03:11:57.127Z,6.6
2023-02-19T03:13:00.508Z,6.6
2023-02-19T03:14:04.144Z,6.6
2023-02-19T03:15:07.207Z,6.6
2023-02-19T03:16:10.395Z,6.6
2023-02-19T03:17:13.513Z,6.6
2023-02-19T03:18:17.149Z,6.6
2023-02-19T03:19:19.982Z,6.6
2023-02-19T03:20:23.618Z,6.6
2023-02-19T03:21:27.017Z,6.6
2023-02-19T03:22:30.733Z,6.5
2023-02-19T03:23:34.366Z,6.5
2023-02-19T03:24:36.875Z,6.5
2023-02-19T03:25:39.861Z,6.5
2023-02-19T03:26:43.309Z,6.5
2023-02-19T03:27:45.814Z,6.5
2023-02-19T03:28:48.786Z,6.5
2023-02-19T03:29:51.218Z,6.5
2023-02-19T03:30:54.288Z,6.5
2023-02-19T03:31:58.372Z,6.5
2023-02-19T03:33:01.742Z,6.5
2023-02-19T03:34:04.662Z,6.6
2023-02-19T03:35:08.374Z,6.5
2023-02-19T03:36:11.757Z,6.5
2023-02-19T03:37:14.475Z,6.5
2023-02-19T03:38:17.302Z,6.5
2023-02-19T03:39:20.383Z,6.5
2023-02-19T03:40:23.443Z,6.5
2023-02-19T03:41:26.437Z,6.5
2023-02-19T03:42:29.857Z,6.5
2023-02-19T03:43:32.577Z,6.5
2023-02-19T03:44:37.214Z,6.5
2023-02-19T03:45:40.679Z,6.5
2023-02-19T03:46:43.577Z,6.5
2023-02-19T03:47:46.583Z,6.5
2023-02-19T03:48:49.982Z,6.4
2023-02-19T03:49:53.146Z,6.5
2023-02-19T03:50:56.212Z,6.4
2023-02-19T03:51:58.887Z,6.4
2023-02-19T03:53:02.237Z,6.4
2023-02-19T03:54:05.328Z,6.4
2023-02-19T03:55:07.850Z,6.4
2023-02-19T03:56:11.250Z,6.3
2023-02-19T03:57:13.690Z,6.3
2023-02-19T03:58:16.672Z,6.3
2023-02-19T03:59:19.448Z,6.3
2023-02-19T04:00:22.537Z,6.3
2023-02-19T04:01:25.634Z,6.3
2023-02-19T04:02:28.984Z,6.3
2023-02-19T04:03:32.681Z,6.3
2023-02-19T04:04:35.932Z,6.3
2023-02-19T04:05:39.563Z,6.2
2023-02-19T04:06:42.366Z,6.2
2023-02-19T04:07:45.172Z,6.2
2023-02-19T04:08:48.869Z,6.2
2023-02-19T04:09:51.680Z,6.2
2023-02-19T04:10:54.383Z,6.2
2023-02-19T04:11:58.100Z,6.2
2023-02-19T04:13:01.181Z,6.1
2023-02-19T04:14:04.550Z,6.1
2023-02-19T04:15:07.691Z,6.1
2023-02-19T04:16:11.337Z,6.1
2023-02-19T04:17:14.518Z,6.1
2023-02-19T04:18:17.572Z,6.1
2023-02-19T04:19:21.558Z,6.1
2023-02-19T04:20:24.609Z,6.1
2023-02-19T04:21:27.692Z,6.1
2023-02-19T04:22:31.423Z,6.1
2023-02-19T04:23:34.479Z,6.1
2023-02-19T04:24:37.837Z,6.1
2023-02-19T04:25:40.953Z,6
2023-02-19T04:26:44.592Z,6.1
2023-02-19T04:27:47.638Z,6
2023-02-19T04:28:50.427Z,6
2023-02-19T04:29:53.498Z,6
2023-02-19T04:30:56.725Z,6
2023-02-19T04:31:59.838Z,6
2023-02-19T04:33:03.230Z,6
2023-02-19T04:34:05.668Z,6
2023-02-19T04:35:09.017Z,6
2023-02-19T04:36:11.857Z,6
2023-02-19T04:37:14.672Z,6
2023-02-19T04:38:18.109Z,5.9
2023-02-19T04:39:21.438Z,5.9
2023-02-19T04:40:24.269Z,6
2023-02-19T04:41:27.373Z,5.9
2023-02-19T04:42:29.881Z,5.9
2023-02-19T04:43:33.126Z,5.9
2023-02-19T04:44:36.461Z,5.9
2023-02-19T04:45:38.763Z,5.9
2023-02-19T04:46:43.586Z,5.9
2023-02-19T04:47:46.450Z,5.9
2023-02-19T04:48:49.893Z,5.9
2023-02-19T04:49:53.601Z,5.8
2023-02-19T04:50:56.321Z,5.8
2023-02-19T04:51:59.303Z,5.8
2023-02-19T04:53:02.762Z,5.8
2023-02-19T04:54:05.755Z,5.8
2023-02-19T04:55:08.632Z,5.8
2023-02-19T04:56:11.353Z,5.8
2023-02-19T04:57:14.163Z,5.8
2023-02-19T04:58:17.138Z,5.8
2023-02-19T04:59:19.885Z,5.7
2023-02-19T05:00:22.986Z,5.8
2023-02-19T05:01:26.157Z,5.7
2023-02-19T05:02:30.023Z,5.7
2023-02-19T05:03:32.830Z,5.7
2023-02-19T05:04:36.332Z,5.7
2023-02-19T05:05:39.945Z,5.7
2023-02-19T05:06:42.935Z,5.7
2023-02-19T05:07:46.102Z,5.7
2023-02-19T05:08:49.087Z,5.7
2023-02-19T05:09:52.936Z,5.7
2023-02-19T05:10:56.294Z,5.7
2023-02-19T05:11:59.670Z,5.7
2023-02-19T05:13:02.844Z,5.7
2023-02-19T05:14:05.539Z,5.7
2023-02-19T05:15:08.632Z,5.7
2023-02-19T05:16:12.162Z,5.7
2023-02-19T05:17:15.887Z,5.7
2023-02-19T05:18:18.948Z,5.7
2023-02-19T05:19:21.685Z,5.7
2023-02-19T05:20:25.125Z,5.7
2023-02-19T05:21:28.751Z,5.7
2023-02-19T05:22:32.477Z,5.6
2023-02-19T05:23:35.825Z,5.6
2023-02-19T05:24:38.805Z,5.6
2023-02-19T05:25:42.210Z,5.6
2023-02-19T05:26:46.216Z,5.6
2023-02-19T05:27:49.967Z,5.6
2023-02-19T05:28:52.420Z,5.6
2023-02-19T05:29:55.833Z,5.6
2023-02-19T05:30:59.225Z,5.6
2023-02-19T05:32:03.176Z,5.6
2023-02-19T05:33:06.825Z,5.6
2023-02-19T05:34:09.535Z,5.6
2023-02-19T05:35:12.873Z,5.6
2023-02-19T05:36:15.832Z,5.6
2023-02-19T05:37:18.609Z,5.6
2023-02-19T05:38:21.775Z,5.6
2023-02-19T05:39:24.874Z,5.6
2023-02-19T05:40:28.202Z,5.6
2023-02-19T05:41:30.908Z,5.6
2023-02-19T05:42:34.321Z,5.6
2023-02-19T05:43:37.698Z,5.6
2023-02-19T05:44:40.191Z,5.6
2023-02-19T05:45:43.907Z,5.6
2023-02-19T05:46:47.016Z,5.6
2023-02-19T05:47:49.601Z,5.6
2023-02-19T05:48:53.283Z,5.6
2023-02-19T05:49:56.751Z,5.6
2023-02-19T05:51:00.113Z,5.6
2023-02-19T05:52:02.719Z,5.6
2023-02-19T05:53:05.509Z,5.6
2023-02-19T05:54:08.038Z,5.6
2023-02-19T05:55:11.502Z,5.6
2023-02-19T05:56:14.642Z,5.6
2023-02-19T05:57:17.058Z,5.6
2023-02-19T05:58:20.465Z,5.6
2023-02-19T05:59:23.542Z,5.6
2023-02-19T06:00:26.125Z,5.6
2023-02-19T06:01:28.911Z,5.6
2023-02-19T06:02:31.705Z,5.6
2023-02-19T06:03:35.042Z,5.6
2023-02-19T06:04:37.989Z,5.6
2023-02-19T06:05:42.019Z,5.6
2023-02-19T06:06:44.743Z,5.6
2023-02-19T06:07:47.439Z,5.6
2023-02-19T06:08:50.490Z,5.6
2023-02-19T06:09:53.940Z,5.6
2023-02-19T06:10:57.089Z,5.6
2023-02-19T06:11:59.801Z,5.6
2023-02-19T06:13:03.265Z,5.6
2023-02-19T06:14:06.634Z,5.6
2023-02-19T06:15:09.346Z,5.6
2023-02-19T06:16:12.317Z,5.6
2023-02-19T06:17:15.981Z,5.6
2023-02-19T06:18:19.455Z,5.6
2023-02-19T06:19:22.708Z,5.6
2023-02-19T06:20:27.295Z,5.6
2023-02-19T06:21:29.706Z,5.6
2023-02-19T06:22:33.068Z,5.6
2023-02-19T06:23:36.603Z,5.6
2023-02-19T06:24:39.883Z,5.6
2023-02-19T06:25:43.264Z,5.6
2023-02-19T06:26:46.253Z,5.5
2023-02-19T06:27:49.040Z,5.5
2023-02-19T06:28:51.843Z,5.5
2023-02-19T06:29:55.465Z,5.5
2023-02-19T06:30:58.313Z,5.5
2023-02-19T06:32:01.891Z,5.6
2023-02-19T06:33:05.052Z,5.5
2023-02-19T06:34:08.134Z,5.5
2023-02-19T06:35:11.569Z,5.5
2023-02-19T06:36:14.425Z,5.5
2023-02-19T06:37:17.880Z,5.5
2023-02-19T06:38:21.013Z,5.5
2023-02-19T06:39:23.724Z,5.5
2023-02-19T06:40:26.800Z,5.5
2023-02-19T06:41:29.967Z,5.5
2023-02-19T06:42:33.689Z,5.4
2023-02-19T06:43:36.950Z,5.4
2023-02-19T06:44:40.703Z,5.4
2023-02-19T06:45:43.730Z,5.4
2023-02-19T06:46:46.909Z,5.5
2023-02-19T06:47:50.152Z,5.4
2023-02-19T06:48:53.497Z,5.5
2023-02-19T06:49:56.477Z,5.4
2023-02-19T06:50:59.178Z,5.5
2023-02-19T06:52:02.356Z,5.5
2023-02-19T06:53:05.400Z,5.4
2023-02-19T06:54:08.536Z,5.4
2023-02-19T06:55:11.140Z,5.4
2023-02-19T06:56:14.863Z,5.4
2023-02-19T06:57:17.676Z,5.4
2023-02-19T06:58:21.741Z,5.5
2023-02-19T06:59:24.821Z,5.4
2023-02-19T07:00:27.892Z,5.4
2023-02-19T07:01:30.865Z,5.4
2023-02-19T07:02:34.496Z,5.4
2023-02-19T07:03:37.623Z,5.4
2023-02-19T07:04:41.262Z,5.4
2023-02-19T07:05:44.969Z,5.4
2023-02-19T07:06:47.682Z,5.4
2023-02-19T07:07:50.182Z,5.4
2023-02-19T07:08:53.565Z,5.4
2023-02-19T07:09:56.564Z,5.4
2023-02-19T07:10:59.625Z,5.4
2023-02-19T07:12:02.257Z,5.4
2023-02-19T07:13:05.326Z,5.4
2023-02-19T07:14:08.078Z,5.4
2023-02-19T07:15:10.912Z,5.4
2023-02-19T07:16:14.034Z,5.5
2023-02-19T07:17:17.656Z,5.5
2023-02-19T07:18:20.706Z,5.5
2023-02-19T07:19:24.036Z,5.5
2023-02-19T07:20:27.788Z,5.5
2023-02-19T07:21:31.168Z,5.5
2023-02-19T07:22:34.878Z,5.5
2023-02-19T07:23:38.016Z,5.5
2023-02-19T07:24:40.219Z,5.5
2023-02-19T07:25:43.282Z,5.5
2023-02-19T07:26:46.268Z,5.5
2023-02-19T07:27:49.972Z,5.5
2023-02-19T07:28:52.211Z,5.5
2023-02-19T07:29:55.909Z,5.5
2023-02-19T07:30:59.204Z,5.6
2023-02-19T07:32:02.007Z,5.6
2023-02-19T07:33:04.868Z,5.6
2023-02-19T07:34:07.931Z,5.6
2023-02-19T07:35:11.263Z,5.6
2023-02-19T07:36:14.012Z,5.6
2023-02-19T07:37:17.083Z,5.6
2023-02-19T07:38:19.997Z,5.6
2023-02-19T07:39:22.457Z,5.6
2023-02-19T07:40:25.501Z,5.6
2023-02-19T07:41:28.399Z,5.7
2023-02-19T07:42:31.947Z,5.6
2023-02-19T07:43:35.324Z,5.6
2023-02-19T07:44:38.177Z,5.7
2023-02-19T07:45:41.711Z,5.6
2023-02-19T07:46:45.231Z,5.6
2023-02-19T07:47:48.307Z,5.7
2023-02-19T07:48:51.534Z,5.7
2023-02-19T07:49:54.346Z,5.7
2023-02-19T07:50:57.417Z,5.7
2023-02-19T07:52:00.476Z,5.7
2023-02-19T07:53:03.253Z,5.8
2023-02-19T07:54:05.758Z,5.8
2023-02-19T07:55:08.748Z,5.8
2023-02-19T07:56:11.842Z,5.8
2023-02-19T07:57:14.878Z,5.9
2023-02-19T07:58:18.011Z,5.9
2023-02-19T07:59:21.080Z,5.9
2023-02-19T08:00:24.499Z,5.9
2023-02-19T08:01:27.748Z,6
2023-02-19T08:02:31.515Z,6
2023-02-19T08:03:34.449Z,6
2023-02-19T08:04:37.718Z,6.1
2023-02-19T08:05:40.789Z,6.1
2023-02-19T08:06:43.627Z,6.2
2023-02-19T08:07:46.851Z,6.2
2023-02-19T08:08:49.923Z,6.2
2023-02-19T08:09:52.710Z,6.3
2023-02-19T08:10:55.208Z,6.3
2023-02-19T08:11:58.583Z,6.3
2023-02-19T08:13:01.674Z,6.4
2023-02-19T08:14:04.749Z,6.4
2023-02-19T08:15:08.100Z,6.4
2023-02-19T08:16:42.798Z,6.5
2023-02-19T08:17:46.958Z,6.6
2023-02-19T08:18:50.595Z,6.6
2023-02-19T08:19:53.616Z,6.6
2023-02-19T08:20:56.678Z,6.7
2023-02-19T08:21:59.664Z,6.7
2023-02-19T08:23:03.073Z,6.8
2023-02-19T08:24:06.443Z,6.8
2023-02-19T08:25:09.928Z,6.8
2023-02-19T08:26:13.635Z,6.9
2023-02-19T08:27:16.697Z,6.9
2023-02-19T08:28:20.027Z,6.9
2023-02-19T08:29:23.104Z,6.9
2023-02-19T08:30:26.483Z,7
2023-02-19T08:31:30.706Z,7
2023-02-19T08:32:34.033Z,7
2023-02-19T08:33:36.820Z,7
2023-02-19T08:34:40.156Z,7.1
2023-02-19T08:35:43.017Z,7.1
2023-02-19T08:36:46.740Z,7.1
2023-02-19T08:37:49.500Z,7.1
2023-02-19T08:38:52.659Z,7.2
2023-02-19T08:39:55.851Z,7.2
2023-02-19T08:40:59.661Z,7.2
2023-02-19T08:42:02.758Z,7.2
2023-02-19T08:43:05.633Z,7.2
2023-02-19T08:44:09.093Z,7.3
2023-02-19T08:45:12.438Z,7.2
2023-02-19T08:46:15.435Z,7.2
2023-02-19T08:47:18.648Z,7.3
2023-02-19T08:48:21.734Z,7.3
2023-02-19T08:49:24.833Z,7.4
2023-02-19T08:50:28.162Z,7.4
2023-02-19T08:51:31.573Z,7.4
2023-02-19T08:52:34.566Z,7.4
2023-02-19T08:53:37.180Z,7.4
2023-02-19T08:54:40.291Z,7.5
2023-02-19T08:55:43.335Z,7.5
2023-02-19T08:56:46.315Z,7.6
2023-02-19T08:57:51.571Z,7.6
2023-02-19T08:58:55.189Z,7.7
2023-02-19T08:59:58.552Z,7.7
2023-02-19T09:01:02.200Z,7.8
2023-02-19T09:02:05.732Z,7.9
2023-02-19T09:03:09.110Z,8
2023-02-19T09:04:12.522Z,8
2023-02-19T09:05:15.756Z,8
2023-02-19T09:06:19.134Z,8.1
2023-02-19T09:07:22.503Z,8.1
2023-02-19T09:08:25.604Z,8.2
2023-02-19T09:09:28.579Z,8.3
2023-02-19T09:10:32.081Z,8.3
2023-02-19T09:11:35.725Z,8.4
2023-02-19T09:12:38.321Z,8.5
2023-02-19T09:13:41.399Z,8.5
2023-02-19T09:14:44.914Z,8.6
2023-02-19T09:15:48.202Z,8.6
2023-02-19T09:16:52.061Z,8.7
2023-02-19T09:17:55.552Z,8.7
2023-02-19T09:18:58.873Z,8.8
2023-02-19T09:20:02.897Z,8.9
2023-02-19T09:21:06.575Z,8.9
2023-02-19T09:22:09.614Z,9
2023-02-19T09:23:12.331Z,9.1
2023-02-19T09:24:14.762Z,9.2
2023-02-19T09:25:17.772Z,9.3
2023-02-19T09:26:20.895Z,9.3
2023-02-19T09:27:24.300Z,9.4
2023-02-19T09:28:27.020Z,9.5
2023-02-19T09:29:30.316Z,9.6
2023-02-19T09:30:33.926Z,9.7
2023-02-19T09:31:38.422Z,9.8
2023-02-19T09:32:42.252Z,9.9
2023-02-19T09:33:45.421Z,10
2023-02-19T09:34:48.866Z,10.1
2023-02-19T09:35:52.062Z,10.2
2023-02-19T09:36:55.128Z,10.3
2023-02-19T09:37:57.851Z,10.4
2023-02-19T09:39:00.587Z,10.5
2023-02-19T09:40:04.282Z,10.6
2023-02-19T09:41:07.265Z,10.7
2023-02-19T09:42:10.901Z,10.7
2023-02-19T09:43:13.958Z,10.8
2023-02-19T09:44:16.657Z,10.8
2023-02-19T09:45:19.714Z,10.9
2023-02-19T09:46:23.648Z,10.9
2023-02-19T09:47:26.661Z,11
2023-02-19T09:48:30.109Z,11
2023-02-19T09:49:33.392Z,11.1
2023-02-19T09:50:36.508Z,11.1
2023-02-19T09:51:39.603Z,11.2
2023-02-19T09:52:43.323Z,11.3
2023-02-19T09:53:47.006Z,11.4
2023-02-19T09:54:49.439Z,11.4
2023-02-19T09:55:52.889Z,11.4
2023-02-19T09:56:57.142Z,11.5
2023-02-19T09:58:01.978Z,11.5
2023-02-19T09:59:04.487Z,11.5
2023-02-19T10:00:10.829Z,11.5
2023-02-19T10:01:14.778Z,11.6
2023-02-19T10:02:18.515Z,11.6
2023-02-19T10:03:22.010Z,11.6
2023-02-19T10:04:25.380Z,11.6
2023-02-19T10:05:28.669Z,11.7
2023-02-19T10:06:31.812Z,11.7
2023-02-19T10:07:34.959Z,11.8
2023-02-19T10:08:37.813Z,11.8
2023-02-19T10:09:40.815Z,11.8
2023-02-19T10:10:43.974Z,11.9
2023-02-19T10:11:46.773Z,11.9
2023-02-19T10:12:50.182Z,11.9
2023-02-19T10:13:52.915Z,12
2023-02-19T10:14:56.256Z,12.1
2023-02-19T10:15:58.971Z,12.1
2023-02-19T10:17:02.509Z,12.2
2023-02-19T10:18:05.899Z,12.3
2023-02-19T10:19:13.096Z,12.3
2023-02-19T10:20:16.481Z,12.4
2023-02-19T10:21:19.190Z,12.5
2023-02-19T10:22:22.365Z,12.5
2023-02-19T10:23:25.344Z,12.6
2023-02-19T10:24:28.716Z,12.5
2023-02-19T10:25:32.531Z,12.6
2023-02-19T10:26:35.500Z,12.6
2023-02-19T10:27:37.989Z,12.6
2023-02-19T10:28:41.996Z,12.6
2023-02-19T10:29:45.363Z,12.6
2023-02-19T10:30:48.215Z,12.6
2023-02-19T10:31:52.013Z,12.7
2023-02-19T10:32:55.650Z,12.7
2023-02-19T10:33:58.799Z,12.8
2023-02-19T10:35:02.258Z,12.9
2023-02-19T10:36:05.530Z,12.9
2023-02-19T10:37:08.614Z,13.1
2023-02-19T10:38:11.212Z,13.1
2023-02-19T10:39:14.582Z,13.2
2023-02-19T10:40:17.133Z,13.3
2023-02-19T10:41:19.894Z,13.3
2023-02-19T10:42:23.628Z,13.4
2023-02-19T10:43:26.701Z,13.4
2023-02-19T10:44:30.359Z,13.4
2023-02-19T10:45:33.822Z,13.5
2023-02-19T10:46:37.297Z,13.6
2023-02-19T10:47:40.570Z,13.6
2023-02-19T10:48:43.548Z,13.7
2023-02-19T10:49:46.993Z,13.8
2023-02-19T10:50:50.141Z,13.9
2023-02-19T10:51:53.395Z,13.9
2023-02-19T10:52:56.195Z,13.9
2023-02-19T10:53:59.349Z,13.9
2023-02-19T10:55:03.352Z,13.9
2023-02-19T10:56:06.410Z,13.8
2023-02-19T10:57:09.595Z,13.8
2023-02-19T10:58:12.674Z,13.8
2023-02-19T10:59:15.333Z,13.7
2023-02-19T11:00:18.590Z,13.7
2023-02-19T11:01:21.954Z,13.7
2023-02-19T11:02:25.653Z,13.7
2023-02-19T11:03:29.045Z,13.7
2023-02-19T11:04:32.385Z,13.7
2023-02-19T11:05:36.465Z,13.8
2023-02-19T11:06:38.918Z,13.8
2023-02-19T11:07:41.887Z,13.8
2023-02-19T11:08:45.119Z,13.8
2023-02-19T11:09:47.830Z,13.8
2023-02-19T11:10:51.204Z,13.8
2023-02-19T11:11:54.004Z,13.7
2023-02-19T11:12:57.093Z,13.8
2023-02-19T11:14:00.502Z,13.8
2023-02-19T11:15:02.950Z,13.8
2023-02-19T11:16:06.221Z,13.8
2023-02-19T11:17:09.310Z,13.8
2023-02-19T11:18:12.679Z,13.8
2023-02-19T11:19:15.738Z,13.8
2023-02-19T11:20:19.239Z,13.8
2023-02-19T11:21:22.233Z,13.9
2023-02-19T11:22:25.653Z,13.8
2023-02-19T11:23:29.083Z,13.8
2023-02-19T11:24:32.236Z,13.7
2023-02-19T11:25:35.580Z,13.7
2023-02-19T11:26:38.616Z,13.6
2023-02-19T11:27:41.328Z,13.5
2023-02-19T11:28:44.098Z,13.6
2023-02-19T11:29:47.521Z,13.6
2023-02-19T11:30:50.856Z,13.7
2023-02-19T11:31:53.954Z,13.7
2023-02-19T11:32:57.715Z,13.8
2023-02-19T11:34:01.404Z,13.9
2023-02-19T11:35:04.753Z,13.9
2023-02-19T11:36:08.393Z,14.1
2023-02-19T11:37:11.185Z,14.1
2023-02-19T11:38:14.557Z,14.2
2023-02-19T11:39:17.722Z,14.4
2023-02-19T11:40:20.771Z,14.5
2023-02-19T11:41:24.555Z,14.6
2023-02-19T11:42:30.268Z,14.7
2023-02-19T11:43:33.527Z,14.7
2023-02-19T11:44:36.521Z,14.8
2023-02-19T11:45:39.898Z,14.8
2023-02-19T11:46:43.197Z,14.9
2023-02-19T11:47:46.230Z,15
2023-02-19T11:48:49.015Z,15.1
2023-02-19T11:49:51.740Z,15.2
2023-02-19T11:50:54.811Z,15.4
2023-02-19T11:51:57.515Z,15.6
2023-02-19T11:53:00.848Z,15.7
2023-02-19T11:54:03.550Z,15.8
2023-02-19T11:55:06.259Z,15.9
2023-02-19T11:56:08.762Z,15.9
2023-02-19T11:57:12.184Z,16
2023-02-19T11:58:14.800Z,16
2023-02-19T11:59:18.601Z,16.1
2023-02-19T12:00:21.310Z,16.1
2023-02-19T12:01:25.040Z,16.1
2023-02-19T12:02:27.914Z,16.1
2023-02-19T12:03:31.250Z,16
2023-02-19T12:04:38.404Z,16
2023-02-19T12:05:41.374Z,16
2023-02-19T12:06:44.659Z,16
2023-02-19T12:07:47.442Z,16
2023-02-19T12:08:50.780Z,16
2023-02-19T12:09:54.145Z,16
2023-02-19T12:10:57.466Z,16.1
2023-02-19T12:12:00.518Z,16.1
2023-02-19T12:13:03.293Z,16.2
2023-02-19T12:14:06.557Z,16.3
2023-02-19T12:15:09.622Z,16.3
2023-02-19T12:16:13.058Z,16.4
2023-02-19T12:17:16.908Z,16.5
2023-02-19T12:18:20.638Z,16.6
2023-02-19T12:19:23.779Z,16.6
2023-02-19T12:20:26.861Z,16.7
2023-02-19T12:21:30.028Z,16.7
2023-02-19T12:22:33.304Z,16.7
2023-02-19T12:23:36.924Z,16.7
2023-02-19T12:24:40.029Z,16.7
2023-02-19T12:25:43.448Z,16.7
2023-02-19T12:26:46.179Z,16.7
2023-02-19T12:27:49.697Z,16.7
2023-02-19T12:28:52.831Z,16.7
2023-02-19T12:29:55.990Z,16.8
2023-02-19T12:30:59.653Z,16.8
2023-02-19T12:32:03.491Z,16.9
2023-02-19T12:33:07.052Z,17
2023-02-19T12:34:10.017Z,17.1
2023-02-19T12:35:13.096Z,17.1
2023-02-19T12:36:16.187Z,17.2
2023-02-19T12:37:19.524Z,17.2
2023-02-19T12:38:22.615Z,17.2
2023-02-19T12:39:25.987Z,17.2
2023-02-19T12:40:28.976Z,17.2
2023-02-19T12:41:32.336Z,17.3
2023-02-19T12:42:35.115Z,17.3
2023-02-19T12:43:38.379Z,17.3
2023-02-19T12:44:41.808Z,17.3
2023-02-19T12:45:45.344Z,17.3
2023-02-19T12:46:48.832Z,17.2
2023-02-19T12:47:51.613Z,17.2
2023-02-19T12:48:54.871Z,17.1
2023-02-19T12:49:58.001Z,17.1
2023-02-19T12:51:01.345Z,17
2023-02-19T12:52:04.987Z,17
2023-02-19T12:53:08.350Z,17
2023-02-19T12:54:11.311Z,16.9
2023-02-19T12:55:14.280Z,17
2023-02-19T12:56:17.968Z,16.9
2023-02-19T12:57:21.418Z,16.9
2023-02-19T12:58:24.678Z,16.9
2023-02-19T12:59:28.309Z,16.9
2023-02-19T13:00:31.746Z,16.9
2023-02-19T13:01:35.317Z,16.9
2023-02-19T13:02:38.849Z,16.9
2023-02-19T13:03:41.932Z,16.9
2023-02-19T13:04:44.970Z,17
2023-02-19T13:05:48.046Z,17
2023-02-19T13:06:50.809Z,17
2023-02-19T13:07:53.324Z,16.9
2023-02-19T13:09:07.603Z,16.9
2023-02-19T13:10:11.256Z,16.8
2023-02-19T13:11:15.498Z,16.8
2023-02-19T13:12:19.549Z,16.8
2023-02-19T13:13:25.377Z,16.9
2023-02-19T13:14:28.913Z,16.9
2023-02-19T13:15:31.708Z,16.9
2023-02-19T13:16:35.169Z,17
2023-02-19T13:17:38.224Z,17
2023-02-19T13:18:41.588Z,17
2023-02-19T13:19:44.923Z,17.1
2023-02-19T13:20:47.902Z,17.1
2023-02-19T13:21:50.329Z,17.1
2023-02-19T13:22:53.403Z,17.1
2023-02-19T13:23:57.000Z,17.1
2023-02-19T13:25:00.169Z,17.1
2023-02-19T13:26:03.200Z,17.1
2023-02-19T13:27:06.901Z,17.1
2023-02-19T13:28:10.030Z,17.1
2023-02-19T13:29:13.296Z,17.1
2023-02-19T13:30:16.824Z,17.1
2023-02-19T13:31:20.805Z,17
2023-02-19T13:32:24.984Z,17
2023-02-19T13:33:28.429Z,17
2023-02-19T13:34:32.423Z,17.1
2023-02-19T13:35:35.598Z,17.1
2023-02-19T13:36:38.581Z,17.2
2023-02-19T13:37:41.669Z,17.2
2023-02-19T13:38:44.391Z,17.3
2023-02-19T13:39:48.010Z,17.3
2023-02-19T13:40:51.258Z,17.3
2023-02-19T13:41:54.324Z,17.3
2023-02-19T13:42:57.321Z,17.3
2023-02-19T13:44:00.284Z,17.3
2023-02-19T13:45:03.684Z,17.2
2023-02-19T13:46:07.550Z,17.2
2023-02-19T13:47:11.301Z,17.2
2023-02-19T13:48:14.567Z,17.2
2023-02-19T13:49:17.619Z,17.2
2023-02-19T13:50:21.034Z,17.2
2023-02-19T13:51:23.560Z,17.1
2023-02-19T13:52:26.946Z,17.2
2023-02-19T13:53:30.316Z,17.2
2023-02-19T13:54:34.057Z,17.2
2023-02-19T13:55:37.119Z,17.2
2023-02-19T13:56:44.232Z,17.3
2023-02-19T13:57:47.014Z,17.3
2023-02-19T13:58:50.390Z,17.3
2023-02-19T13:59:54.115Z,17.4
2023-02-19T14:00:57.286Z,17.5
2023-02-19T14:02:00.928Z,17.5
2023-02-19T14:03:04.557Z,17.6
2023-02-19T14:04:08.199Z,17.6
2023-02-19T14:05:11.353Z,17.7
2023-02-19T14:06:14.697Z,17.8
2023-02-19T14:07:17.906Z,17.9
2023-02-19T14:08:20.767Z,18
2023-02-19T14:09:23.538Z,18
2023-02-19T14:10:25.965Z,18.1
2023-02-19T14:11:30.039Z,18.1
2023-02-19T14:12:33.022Z,18.1
2023-02-19T14:13:36.015Z,18.2
2023-02-19T14:14:39.676Z,18.2
2023-02-19T14:15:42.644Z,18.2
2023-02-19T14:16:45.926Z,18.3
2023-02-19T14:17:48.713Z,18.3
2023-02-19T14:18:52.149Z,18.4
2023-02-19T14:19:55.262Z,18.4
2023-02-19T14:20:58.617Z,18.3
2023-02-19T14:22:02.036Z,18.2
2023-02-19T14:23:05.490Z,18.1
2023-02-19T14:24:08.547Z,18
2023-02-19T14:25:11.325Z,17.9
2023-02-19T14:26:15.333Z,17.7
2023-02-19T14:27:18.773Z,17.6